sensor_id;sensor_type;location;lat;lon;timestamp;P1;durP1;ratioP1;P2;durP2;ratioP2
34960;SDS011;30789;52.030;7.110;2023-07-29T00:00:03;4.75;;;4.25;;
34960;SDS011;30789;52.030;7.110;2023-07-29T00:02:31;4.85;;;4.40;;
34960;SDS011;30789;52.030;7.110;2023-07-29T00:04:58;5.57;;;4.40;;
34960;SDS011;30789;52.030;7.110;2023-07-29T00:07:24;7.05;;;5.00;;
34960;SDS011;30789;52.030;7.110;2023-07-29T00:09:51;5.47;;;4.85;;
34960;SDS011;30789;52.030;7.110;2023-07-29T00:12:19;5.20;;;4.47;;
34960;SDS011;30789;52.030;7.110;2023-07-29T00:14:46;5.78;;;4.80;;
34960;SDS011;30789;52.030;7.110;2023-07-29T00:17:12;6.55;;;5.10;;
34960;SDS011;30789;52.030;7.110;2023-07-29T00:19:39;5.63;;;3.95;;
34960;SDS011;30789;52.030;7.110;2023-07-29T00:22:05;4.82;;;4.35;;
34960;SDS011;30789;52.030;7.110;2023-07-29T00:24:33;6.18;;;4.65;;
34960;SDS011;30789;52.030;7.110;2023-07-29T00:27:00;6.95;;;4.57;;
34960;SDS011;30789;52.030;7.110;2023-07-29T00:29:28;5.10;;;4.40;;
34960;SDS011;30789;52.030;7.110;2023-07-29T00:31:54;6.43;;;4.45;;
34960;SDS011;30789;52.030;7.110;2023-07-29T00:34:21;6.03;;;4.55;;
34960;SDS011;30789;52.030;7.110;2023-07-29T00:36:47;6.25;;;4.45;;
34960;SDS011;30789;52.030;7.110;2023-07-29T00:39:14;7.38;;;4.90;;
34960;SDS011;30789;52.030;7.110;2023-07-29T00:41:40;6.35;;;4.65;;
34960;SDS011;30789;52.030;7.110;2023-07-29T00:44:07;4.50;;;4.07;;
34960;SDS011;30789;52.030;7.110;2023-07-29T00:46:35;5.70;;;4.00;;
34960;SDS011;30789;52.030;7.110;2023-07-29T00:49:04;5.00;;;3.83;;
34960;SDS011;30789;52.030;7.110;2023-07-29T00:51:30;5.72;;;4.20;;
34960;SDS011;30789;52.030;7.110;2023-07-29T00:53:57;4.63;;;4.13;;
34960;SDS011;30789;52.030;7.110;2023-07-29T00:56:23;4.30;;;3.90;;
34960;SDS011;30789;52.030;7.110;2023-07-29T00:58:50;4.13;;;3.65;;
34960;SDS011;30789;52.030;7.110;2023-07-29T01:01:23;5.97;;;4.00;;
34960;SDS011;30789;52.030;7.110;2023-07-29T01:03:51;7.80;;;4.50;;
34960;SDS011;30789;52.030;7.110;2023-07-29T01:06:18;3.92;;;3.53;;
34960;SDS011;30789;52.030;7.110;2023-07-29T01:08:55;5.03;;;3.72;;
34960;SDS011;30789;52.030;7.110;2023-07-29T01:11:30;6.72;;;3.95;;
34960;SDS011;30789;52.030;7.110;2023-07-29T01:14:06;6.15;;;4.40;;
34960;SDS011;30789;52.030;7.110;2023-07-29T01:16:50;4.25;;;3.85;;
34960;SDS011;30789;52.030;7.110;2023-07-29T01:19:25;4.28;;;3.83;;
34960;SDS011;30789;52.030;7.110;2023-07-29T01:22:07;3.63;;;3.33;;
34960;SDS011;30789;52.030;7.110;2023-07-29T01:24:35;4.68;;;3.70;;
34960;SDS011;30789;52.030;7.110;2023-07-29T01:27:02;4.70;;;3.92;;
34960;SDS011;30789;52.030;7.110;2023-07-29T01:29:30;5.55;;;4.32;;
34960;SDS011;30789;52.030;7.110;2023-07-29T01:31:56;5.10;;;3.88;;
34960;SDS011;30789;52.030;7.110;2023-07-29T01:34:32;5.05;;;4.18;;
34960;SDS011;30789;52.030;7.110;2023-07-29T01:37:05;5.32;;;3.70;;
34960;SDS011;30789;52.030;7.110;2023-07-29T01:39:40;4.22;;;3.38;;
34960;SDS011;30789;52.030;7.110;2023-07-29T01:42:10;3.75;;;3.40;;
34960;SDS011;30789;52.030;7.110;2023-07-29T01:44:37;4.30;;;3.17;;
34960;SDS011;30789;52.030;7.110;2023-07-29T01:47:04;5.72;;;3.80;;
34960;SDS011;30789;52.030;7.110;2023-07-29T01:49:30;5.88;;;3.72;;
34960;SDS011;30789;52.030;7.110;2023-07-29T01:51:57;5.25;;;3.47;;
34960;SDS011;30789;52.030;7.110;2023-07-29T01:54:24;4.40;;;3.30;;
34960;SDS011;30789;52.030;7.110;2023-07-29T01:56:52;3.83;;;3.30;;
34960;SDS011;30789;52.030;7.110;2023-07-29T01:59:18;5.38;;;3.65;;
34960;SDS011;30789;52.030;7.110;2023-07-29T02:01:45;4.20;;;3.63;;
34960;SDS011;30789;52.030;7.110;2023-07-29T02:04:11;3.97;;;3.38;;
34960;SDS011;30789;52.030;7.110;2023-07-29T02:06:38;4.22;;;3.70;;
34960;SDS011;30789;52.030;7.110;2023-07-29T02:09:04;4.20;;;3.80;;
34960;SDS011;30789;52.030;7.110;2023-07-29T02:11:31;4.05;;;3.65;;
34960;SDS011;30789;52.030;7.110;2023-07-29T02:13:59;4.43;;;4.03;;
34960;SDS011;30789;52.030;7.110;2023-07-29T02:16:25;4.38;;;3.97;;
34960;SDS011;30789;52.030;7.110;2023-07-29T02:18:52;4.60;;;4.10;;
34960;SDS011;30789;52.030;7.110;2023-07-29T02:21:19;4.30;;;3.70;;
34960;SDS011;30789;52.030;7.110;2023-07-29T02:23:45;5.75;;;3.72;;
34960;SDS011;30789;52.030;7.110;2023-07-29T02:26:11;5.88;;;3.47;;
34960;SDS011;30789;52.030;7.110;2023-07-29T02:28:38;4.03;;;3.63;;
34960;SDS011;30789;52.030;7.110;2023-07-29T02:31:14;4.68;;;4.13;;
34960;SDS011;30789;52.030;7.110;2023-07-29T02:33:41;4.60;;;4.03;;
34960;SDS011;30789;52.030;7.110;2023-07-29T02:36:08;4.75;;;4.22;;
34960;SDS011;30789;52.030;7.110;2023-07-29T02:38:35;5.85;;;4.60;;
34960;SDS011;30789;52.030;7.110;2023-07-29T02:41:01;5.63;;;5.05;;
34960;SDS011;30789;52.030;7.110;2023-07-29T02:43:27;5.88;;;5.28;;
34960;SDS011;30789;52.030;7.110;2023-07-29T02:45:54;4.63;;;4.22;;
34960;SDS011;30789;52.030;7.110;2023-07-29T02:48:22;4.85;;;4.45;;
34960;SDS011;30789;52.030;7.110;2023-07-29T02:50:48;5.70;;;5.20;;
34960;SDS011;30789;52.030;7.110;2023-07-29T02:53:15;5.38;;;4.88;;
34960;SDS011;30789;52.030;7.110;2023-07-29T02:55:41;4.63;;;4.22;;
34960;SDS011;30789;52.030;7.110;2023-07-29T02:58:08;6.95;;;4.82;;
34960;SDS011;30789;52.030;7.110;2023-07-29T03:00:34;6.05;;;5.45;;
34960;SDS011;30789;52.030;7.110;2023-07-29T03:03:01;6.93;;;5.43;;
34960;SDS011;30789;52.030;7.110;2023-07-29T03:05:29;5.70;;;5.20;;
34960;SDS011;30789;52.030;7.110;2023-07-29T03:07:56;6.30;;;5.70;;
34960;SDS011;30789;52.030;7.110;2023-07-29T03:10:24;6.50;;;5.88;;
34960;SDS011;30789;52.030;7.110;2023-07-29T03:12:50;6.53;;;5.93;;
34960;SDS011;30789;52.030;7.110;2023-07-29T03:15:17;8.27;;;7.13;;
34960;SDS011;30789;52.030;7.110;2023-07-29T03:17:43;7.80;;;6.40;;
34960;SDS011;30789;52.030;7.110;2023-07-29T03:20:10;6.55;;;5.95;;
34960;SDS011;30789;52.030;7.110;2023-07-29T03:22:38;6.00;;;5.43;;
34960;SDS011;30789;52.030;7.110;2023-07-29T03:25:05;8.85;;;7.28;;
34960;SDS011;30789;52.030;7.110;2023-07-29T03:27:32;9.43;;;7.35;;
34960;SDS011;30789;52.030;7.110;2023-07-29T03:29:58;7.07;;;6.38;;
34960;SDS011;30789;52.030;7.110;2023-07-29T03:32:25;6.47;;;5.88;;
34960;SDS011;30789;52.030;7.110;2023-07-29T03:34:51;6.78;;;6.18;;
34960;SDS011;30789;52.030;7.110;2023-07-29T03:37:18;7.38;;;6.68;;
34960;SDS011;30789;52.030;7.110;2023-07-29T03:39:45;7.63;;;6.85;;
34960;SDS011;30789;52.030;7.110;2023-07-29T03:42:12;7.13;;;6.45;;
34960;SDS011;30789;52.030;7.110;2023-07-29T03:44:39;7.88;;;7.10;;
34960;SDS011;30789;52.030;7.110;2023-07-29T03:47:05;8.05;;;7.35;;
34960;SDS011;30789;52.030;7.110;2023-07-29T03:49:33;8.25;;;6.95;;
34960;SDS011;30789;52.030;7.110;2023-07-29T03:51:59;7.63;;;6.93;;
34960;SDS011;30789;52.030;7.110;2023-07-29T03:54:26;9.05;;;7.38;;
34960;SDS011;30789;52.030;7.110;2023-07-29T03:56:53;8.40;;;6.75;;
34960;SDS011;30789;52.030;7.110;2023-07-29T03:59:20;8.05;;;7.25;;
34960;SDS011;30789;52.030;7.110;2023-07-29T04:01:47;7.85;;;7.13;;
34960;SDS011;30789;52.030;7.110;2023-07-29T04:04:14;8.15;;;7.32;;
34960;SDS011;30789;52.030;7.110;2023-07-29T04:06:40;9.68;;;7.93;;
34960;SDS011;30789;52.030;7.110;2023-07-29T04:09:07;8.10;;;7.30;;
34960;SDS011;30789;52.030;7.110;2023-07-29T04:11:34;7.97;;;7.18;;
34960;SDS011;30789;52.030;7.110;2023-07-29T04:14:02;7.90;;;7.10;;
34960;SDS011;30789;52.030;7.110;2023-07-29T04:16:28;8.57;;;7.57;;
34960;SDS011;30789;52.030;7.110;2023-07-29T04:18:55;8.00;;;7.20;;
34960;SDS011;30789;52.030;7.110;2023-07-29T04:21:22;9.13;;;8.15;;
34960;SDS011;30789;52.030;7.110;2023-07-29T04:23:48;9.20;;;8.30;;
34960;SDS011;30789;52.030;7.110;2023-07-29T04:26:15;11.18;;;8.65;;
34960;SDS011;30789;52.030;7.110;2023-07-29T04:28:41;9.23;;;8.30;;
34960;SDS011;30789;52.030;7.110;2023-07-29T04:31:09;9.68;;;8.57;;
34960;SDS011;30789;52.030;7.110;2023-07-29T04:33:36;9.05;;;8.25;;
34960;SDS011;30789;52.030;7.110;2023-07-29T04:36:02;8.70;;;7.78;;
34960;SDS011;30789;52.030;7.110;2023-07-29T04:38:30;9.13;;;8.23;;
34960;SDS011;30789;52.030;7.110;2023-07-29T04:40:58;9.27;;;8.27;;
34960;SDS011;30789;52.030;7.110;2023-07-29T04:43:26;9.05;;;8.15;;
34960;SDS011;30789;52.030;7.110;2023-07-29T04:45:53;8.68;;;7.82;;
34960;SDS011;30789;52.030;7.110;2023-07-29T04:48:20;9.95;;;8.95;;
34960;SDS011;30789;52.030;7.110;2023-07-29T04:50:47;10.98;;;8.85;;
34960;SDS011;30789;52.030;7.110;2023-07-29T04:53:13;10.20;;;9.20;;
34960;SDS011;30789;52.030;7.110;2023-07-29T04:55:41;13.55;;;9.45;;
34960;SDS011;30789;52.030;7.110;2023-07-29T04:58:08;10.55;;;9.35;;
34960;SDS011;30789;52.030;7.110;2023-07-29T05:00:34;11.93;;;10.10;;
34960;SDS011;30789;52.030;7.110;2023-07-29T05:03:01;10.15;;;9.07;;
34960;SDS011;30789;52.030;7.110;2023-07-29T05:05:29;12.80;;;10.88;;
34960;SDS011;30789;52.030;7.110;2023-07-29T05:07:55;14.55;;;11.10;;
34960;SDS011;30789;52.030;7.110;2023-07-29T05:10:22;13.00;;;11.35;;
34960;SDS011;30789;52.030;7.110;2023-07-29T05:12:49;13.50;;;11.25;;
34960;SDS011;30789;52.030;7.110;2023-07-29T05:15:15;14.15;;;12.18;;
34960;SDS011;30789;52.030;7.110;2023-07-29T05:17:43;16.23;;;12.27;;
34960;SDS011;30789;52.030;7.110;2023-07-29T05:20:10;15.07;;;11.57;;
34960;SDS011;30789;52.030;7.110;2023-07-29T05:22:39;13.35;;;11.90;;
34960;SDS011;30789;52.030;7.110;2023-07-29T05:25:05;15.30;;;13.30;;
34960;SDS011;30789;52.030;7.110;2023-07-29T05:27:33;13.50;;;12.10;;
34960;SDS011;30789;52.030;7.110;2023-07-29T05:29:59;17.80;;;14.48;;
34960;SDS011;30789;52.030;7.110;2023-07-29T05:32:25;12.90;;;11.60;;
34960;SDS011;30789;52.030;7.110;2023-07-29T05:34:52;15.10;;;12.45;;
34960;SDS011;30789;52.030;7.110;2023-07-29T05:37:18;15.40;;;13.07;;
34960;SDS011;30789;52.030;7.110;2023-07-29T05:39:47;14.50;;;11.70;;
34960;SDS011;30789;52.030;7.110;2023-07-29T05:42:13;13.40;;;11.63;;
34960;SDS011;30789;52.030;7.110;2023-07-29T05:44:40;12.73;;;11.10;;
34960;SDS011;30789;52.030;7.110;2023-07-29T05:47:06;11.75;;;9.73;;
34960;SDS011;30789;52.030;7.110;2023-07-29T05:49:33;9.93;;;8.35;;
34960;SDS011;30789;52.030;7.110;2023-07-29T05:51:59;13.05;;;8.40;;
34960;SDS011;30789;52.030;7.110;2023-07-29T05:54:26;9.32;;;8.10;;
34960;SDS011;30789;52.030;7.110;2023-07-29T05:56:53;8.50;;;7.05;;
34960;SDS011;30789;52.030;7.110;2023-07-29T05:59:20;8.20;;;7.07;;
34960;SDS011;30789;52.030;7.110;2023-07-29T06:01:47;7.95;;;6.68;;
34960;SDS011;30789;52.030;7.110;2023-07-29T06:04:13;9.95;;;7.18;;
34960;SDS011;30789;52.030;7.110;2023-07-29T06:06:40;7.15;;;6.25;;
34960;SDS011;30789;52.030;7.110;2023-07-29T06:09:07;7.40;;;5.20;;
34960;SDS011;30789;52.030;7.110;2023-07-29T06:11:33;8.63;;;4.78;;
34960;SDS011;30789;52.030;7.110;2023-07-29T06:14:01;5.97;;;5.05;;
34960;SDS011;30789;52.030;7.110;2023-07-29T06:16:27;5.45;;;4.60;;
34960;SDS011;30789;52.030;7.110;2023-07-29T06:18:54;4.53;;;4.10;;
34960;SDS011;30789;52.030;7.110;2023-07-29T06:21:20;4.93;;;4.40;;
34960;SDS011;30789;52.030;7.110;2023-07-29T06:23:47;5.93;;;4.05;;
34960;SDS011;30789;52.030;7.110;2023-07-29T06:26:13;4.80;;;3.75;;
34960;SDS011;30789;52.030;7.110;2023-07-29T06:28:40;3.80;;;3.20;;
34960;SDS011;30789;52.030;7.110;2023-07-29T06:31:08;4.57;;;3.35;;
34960;SDS011;30789;52.030;7.110;2023-07-29T06:33:34;4.28;;;3.03;;
34960;SDS011;30789;52.030;7.110;2023-07-29T06:36:01;4.10;;;3.20;;
34960;SDS011;30789;52.030;7.110;2023-07-29T06:38:28;4.45;;;2.80;;
34960;SDS011;30789;52.030;7.110;2023-07-29T06:40:54;3.58;;;2.08;;
34960;SDS011;30789;52.030;7.110;2023-07-29T06:43:21;3.85;;;2.28;;
34960;SDS011;30789;52.030;7.110;2023-07-29T06:45:47;4.63;;;2.65;;
34960;SDS011;30789;52.030;7.110;2023-07-29T06:48:15;4.63;;;2.70;;
34960;SDS011;30789;52.030;7.110;2023-07-29T06:50:42;3.65;;;2.28;;
34960;SDS011;30789;52.030;7.110;2023-07-29T06:53:08;2.95;;;2.40;;
34960;SDS011;30789;52.030;7.110;2023-07-29T06:55:35;3.72;;;2.35;;
34960;SDS011;30789;52.030;7.110;2023-07-29T06:58:01;2.58;;;2.10;;
34960;SDS011;30789;52.030;7.110;2023-07-29T07:00:28;3.33;;;2.13;;
34960;SDS011;30789;52.030;7.110;2023-07-29T07:02:55;3.92;;;2.70;;
34960;SDS011;30789;52.030;7.110;2023-07-29T07:05:23;3.60;;;2.60;;
34960;SDS011;30789;52.030;7.110;2023-07-29T07:07:49;3.35;;;2.35;;
34960;SDS011;30789;52.030;7.110;2023-07-29T07:10:16;4.85;;;2.70;;
34960;SDS011;30789;52.030;7.110;2023-07-29T07:12:42;3.75;;;2.63;;
34960;SDS011;30789;52.030;7.110;2023-07-29T07:15:09;3.35;;;2.70;;
34960;SDS011;30789;52.030;7.110;2023-07-29T07:17:36;3.53;;;2.55;;
34960;SDS011;30789;52.030;7.110;2023-07-29T07:20:02;4.68;;;2.90;;
34960;SDS011;30789;52.030;7.110;2023-07-29T07:22:31;3.25;;;2.95;;
34960;SDS011;30789;52.030;7.110;2023-07-29T07:24:57;3.25;;;2.72;;
34960;SDS011;30789;52.030;7.110;2023-07-29T07:27:23;4.68;;;2.85;;
34960;SDS011;30789;52.030;7.110;2023-07-29T07:29:50;4.97;;;3.05;;
34960;SDS011;30789;52.030;7.110;2023-07-29T07:32:16;5.97;;;2.85;;
34960;SDS011;30789;52.030;7.110;2023-07-29T07:34:43;4.03;;;2.90;;
34960;SDS011;30789;52.030;7.110;2023-07-29T07:37:10;5.57;;;3.28;;
34960;SDS011;30789;52.030;7.110;2023-07-29T07:39:37;4.25;;;3.53;;
34960;SDS011;30789;52.030;7.110;2023-07-29T07:42:04;3.65;;;2.95;;
34960;SDS011;30789;52.030;7.110;2023-07-29T07:44:31;4.55;;;2.90;;
34960;SDS011;30789;52.030;7.110;2023-07-29T07:46:57;3.42;;;2.95;;
34960;SDS011;30789;52.030;7.110;2023-07-29T07:49:23;5.35;;;3.30;;
34960;SDS011;30789;52.030;7.110;2023-07-29T07:51:50;5.55;;;3.33;;
34960;SDS011;30789;52.030;7.110;2023-07-29T07:54:16;4.28;;;3.08;;
34960;SDS011;30789;52.030;7.110;2023-07-29T07:56:44;5.45;;;3.45;;
34960;SDS011;30789;52.030;7.110;2023-07-29T07:59:11;5.47;;;3.30;;
34960;SDS011;30789;52.030;7.110;2023-07-29T08:01:38;4.03;;;3.10;;
34960;SDS011;30789;52.030;7.110;2023-07-29T08:04:05;4.50;;;2.88;;
34960;SDS011;30789;52.030;7.110;2023-07-29T08:06:32;5.93;;;3.00;;
34960;SDS011;30789;52.030;7.110;2023-07-29T08:08:58;7.80;;;3.08;;
34960;SDS011;30789;52.030;7.110;2023-07-29T08:11:25;4.78;;;2.42;;
34960;SDS011;30789;52.030;7.110;2023-07-29T08:13:53;5.10;;;2.53;;
34960;SDS011;30789;52.030;7.110;2023-07-29T08:16:19;2.75;;;2.33;;
34960;SDS011;30789;52.030;7.110;2023-07-29T08:18:46;4.75;;;2.50;;
34960;SDS011;30789;52.030;7.110;2023-07-29T08:21:13;4.53;;;2.28;;
34960;SDS011;30789;52.030;7.110;2023-07-29T08:23:40;3.13;;;2.50;;
34960;SDS011;30789;52.030;7.110;2023-07-29T08:26:06;3.90;;;2.70;;
34960;SDS011;30789;52.030;7.110;2023-07-29T08:28:33;4.68;;;2.38;;
34960;SDS011;30789;52.030;7.110;2023-07-29T08:31:03;2.90;;;2.53;;
34960;SDS011;30789;52.030;7.110;2023-07-29T08:33:30;3.83;;;2.50;;
34960;SDS011;30789;52.030;7.110;2023-07-29T08:35:58;3.95;;;1.88;;
34960;SDS011;30789;52.030;7.110;2023-07-29T08:38:25;3.78;;;2.20;;
34960;SDS011;30789;52.030;7.110;2023-07-29T08:40:53;2.72;;;2.03;;
34960;SDS011;30789;52.030;7.110;2023-07-29T08:43:23;5.18;;;1.90;;
34960;SDS011;30789;52.030;7.110;2023-07-29T08:45:55;2.45;;;2.20;;
34960;SDS011;30789;52.030;7.110;2023-07-29T08:48:29;2.53;;;1.73;;
34960;SDS011;30789;52.030;7.110;2023-07-29T08:50:58;2.15;;;1.88;;
34960;SDS011;30789;52.030;7.110;2023-07-29T08:53:27;1.63;;;1.35;;
34960;SDS011;30789;52.030;7.110;2023-07-29T08:55:54;1.38;;;1.20;;
34960;SDS011;30789;52.030;7.110;2023-07-29T08:58:21;2.22;;;1.23;;
34960;SDS011;30789;52.030;7.110;2023-07-29T09:00:49;1.55;;;1.45;;
34960;SDS011;30789;52.030;7.110;2023-07-29T09:03:16;2.92;;;1.77;;
34960;SDS011;30789;52.030;7.110;2023-07-29T09:05:44;2.58;;;1.83;;
34960;SDS011;30789;52.030;7.110;2023-07-29T09:08:11;2.10;;;1.52;;
34960;SDS011;30789;52.030;7.110;2023-07-29T09:10:38;1.88;;;1.35;;
34960;SDS011;30789;52.030;7.110;2023-07-29T09:13:05;2.42;;;1.35;;
34960;SDS011;30789;52.030;7.110;2023-07-29T09:15:32;2.67;;;1.23;;
34960;SDS011;30789;52.030;7.110;2023-07-29T09:18:07;4.85;;;1.88;;
34960;SDS011;30789;52.030;7.110;2023-07-29T09:20:35;4.82;;;1.67;;
34960;SDS011;30789;52.030;7.110;2023-07-29T09:23:03;3.50;;;1.17;;
34960;SDS011;30789;52.030;7.110;2023-07-29T09:25:33;3.40;;;2.20;;
34960;SDS011;30789;52.030;7.110;2023-07-29T09:28:00;3.03;;;2.00;;
34960;SDS011;30789;52.030;7.110;2023-07-29T09:30:27;3.80;;;2.03;;
34960;SDS011;30789;52.030;7.110;2023-07-29T09:32:54;5.18;;;2.45;;
34960;SDS011;30789;52.030;7.110;2023-07-29T09:35:22;2.95;;;1.80;;
34960;SDS011;30789;52.030;7.110;2023-07-29T09:37:49;2.47;;;1.50;;
34960;SDS011;30789;52.030;7.110;2023-07-29T09:40:18;2.53;;;1.48;;
34960;SDS011;30789;52.030;7.110;2023-07-29T09:42:48;2.17;;;1.30;;
34960;SDS011;30789;52.030;7.110;2023-07-29T09:45:19;2.83;;;1.15;;
34960;SDS011;30789;52.030;7.110;2023-07-29T09:47:46;1.73;;;1.05;;
34960;SDS011;30789;52.030;7.110;2023-07-29T09:50:13;1.63;;;1.10;;
34960;SDS011;30789;52.030;7.110;2023-07-29T09:52:39;4.63;;;1.00;;
34960;SDS011;30789;52.030;7.110;2023-07-29T09:55:07;2.08;;;1.27;;
34960;SDS011;30789;52.030;7.110;2023-07-29T09:57:37;1.67;;;1.42;;
34960;SDS011;30789;52.030;7.110;2023-07-29T10:00:05;1.67;;;1.17;;
34960;SDS011;30789;52.030;7.110;2023-07-29T10:02:36;1.30;;;1.20;;
34960;SDS011;30789;52.030;7.110;2023-07-29T10:05:03;1.95;;;1.33;;
34960;SDS011;30789;52.030;7.110;2023-07-29T10:07:31;2.58;;;1.50;;
34960;SDS011;30789;52.030;7.110;2023-07-29T10:09:59;1.70;;;1.50;;
34960;SDS011;30789;52.030;7.110;2023-07-29T10:12:27;2.50;;;1.60;;
34960;SDS011;30789;52.030;7.110;2023-07-29T10:14:56;1.67;;;1.30;;
34960;SDS011;30789;52.030;7.110;2023-07-29T10:17:25;1.50;;;1.10;;
34960;SDS011;30789;52.030;7.110;2023-07-29T10:19:52;1.67;;;1.52;;
34960;SDS011;30789;52.030;7.110;2023-07-29T10:22:20;2.65;;;2.10;;
34960;SDS011;30789;52.030;7.110;2023-07-29T10:24:50;2.70;;;2.00;;
34960;SDS011;30789;52.030;7.110;2023-07-29T10:27:20;2.63;;;2.10;;
34960;SDS011;30789;52.030;7.110;2023-07-29T10:29:49;3.95;;;1.73;;
34960;SDS011;30789;52.030;7.110;2023-07-29T10:32:19;2.13;;;1.77;;
34960;SDS011;30789;52.030;7.110;2023-07-29T10:34:50;4.22;;;1.58;;
34960;SDS011;30789;52.030;7.110;2023-07-29T10:37:17;2.08;;;1.60;;
34960;SDS011;30789;52.030;7.110;2023-07-29T10:39:51;2.90;;;1.90;;
34960;SDS011;30789;52.030;7.110;2023-07-29T10:42:20;2.63;;;1.30;;
34960;SDS011;30789;52.030;7.110;2023-07-29T10:44:50;1.80;;;1.40;;
34960;SDS011;30789;52.030;7.110;2023-07-29T10:47:20;4.75;;;2.40;;
34960;SDS011;30789;52.030;7.110;2023-07-29T10:49:49;1.80;;;1.70;;
34960;SDS011;30789;52.030;7.110;2023-07-29T10:52:28;1.33;;;1.13;;
34960;SDS011;30789;52.030;7.110;2023-07-29T10:54:56;2.45;;;1.25;;
34960;SDS011;30789;52.030;7.110;2023-07-29T10:57:30;2.08;;;1.17;;
34960;SDS011;30789;52.030;7.110;2023-07-29T10:59:58;1.98;;;1.60;;
34960;SDS011;30789;52.030;7.110;2023-07-29T11:02:29;2.47;;;1.40;;
34960;SDS011;30789;52.030;7.110;2023-07-29T11:04:57;1.58;;;1.10;;
34960;SDS011;30789;52.030;7.110;2023-07-29T11:07:24;3.50;;;1.38;;
34960;SDS011;30789;52.030;7.110;2023-07-29T11:10:03;3.10;;;1.10;;
34960;SDS011;30789;52.030;7.110;2023-07-29T11:12:34;3.70;;;1.20;;
34960;SDS011;30789;52.030;7.110;2023-07-29T11:15:11;1.10;;;1.00;;
34960;SDS011;30789;52.030;7.110;2023-07-29T11:17:43;1.38;;;1.00;;
34960;SDS011;30789;52.030;7.110;2023-07-29T11:20:12;2.40;;;1.37;;
34960;SDS011;30789;52.030;7.110;2023-07-29T11:22:40;1.67;;;1.10;;
34960;SDS011;30789;52.030;7.110;2023-07-29T11:25:08;1.77;;;1.30;;
34960;SDS011;30789;52.030;7.110;2023-07-29T11:27:35;1.63;;;0.90;;
34960;SDS011;30789;52.030;7.110;2023-07-29T11:30:03;3.08;;;1.17;;
34960;SDS011;30789;52.030;7.110;2023-07-29T11:32:31;2.40;;;1.25;;
34960;SDS011;30789;52.030;7.110;2023-07-29T11:35:02;2.10;;;1.13;;
34960;SDS011;30789;52.030;7.110;2023-07-29T11:37:30;6.80;;;1.40;;
34960;SDS011;30789;52.030;7.110;2023-07-29T11:39:56;1.58;;;1.40;;
34960;SDS011;30789;52.030;7.110;2023-07-29T11:42:23;2.15;;;1.20;;
34960;SDS011;30789;52.030;7.110;2023-07-29T11:44:50;1.88;;;1.25;;
34960;SDS011;30789;52.030;7.110;2023-07-29T11:47:16;1.27;;;1.17;;
34960;SDS011;30789;52.030;7.110;2023-07-29T11:49:43;1.65;;;1.52;;
34960;SDS011;30789;52.030;7.110;2023-07-29T11:52:11;1.65;;;1.50;;
34960;SDS011;30789;52.030;7.110;2023-07-29T11:54:38;2.78;;;1.60;;
34960;SDS011;30789;52.030;7.110;2023-07-29T11:57:06;3.13;;;1.60;;
34960;SDS011;30789;52.030;7.110;2023-07-29T11:59:33;2.55;;;1.30;;
34960;SDS011;30789;52.030;7.110;2023-07-29T12:02:00;1.30;;;1.08;;
34960;SDS011;30789;52.030;7.110;2023-07-29T12:04:27;1.95;;;1.38;;
34960;SDS011;30789;52.030;7.110;2023-07-29T12:06:55;1.88;;;1.35;;
34960;SDS011;30789;52.030;7.110;2023-07-29T12:09:24;3.92;;;1.75;;
34960;SDS011;30789;52.030;7.110;2023-07-29T12:11:53;1.27;;;1.02;;
34960;SDS011;30789;52.030;7.110;2023-07-29T12:14:20;1.63;;;1.50;;
34960;SDS011;30789;52.030;7.110;2023-07-29T12:16:47;2.63;;;1.33;;
34960;SDS011;30789;52.030;7.110;2023-07-29T12:19:16;1.33;;;1.20;;
34960;SDS011;30789;52.030;7.110;2023-07-29T12:21:44;2.22;;;1.40;;
34960;SDS011;30789;52.030;7.110;2023-07-29T12:24:11;2.22;;;1.45;;
34960;SDS011;30789;52.030;7.110;2023-07-29T12:26:40;1.42;;;1.33;;
34960;SDS011;30789;52.030;7.110;2023-07-29T12:29:13;2.13;;;1.25;;
34960;SDS011;30789;52.030;7.110;2023-07-29T12:31:40;1.55;;;1.25;;
34960;SDS011;30789;52.030;7.110;2023-07-29T12:34:07;1.70;;;1.25;;
34960;SDS011;30789;52.030;7.110;2023-07-29T12:36:41;1.30;;;0.80;;
34960;SDS011;30789;52.030;7.110;2023-07-29T12:39:15;2.15;;;1.20;;
34960;SDS011;30789;52.030;7.110;2023-07-29T12:41:43;1.50;;;1.05;;
34960;SDS011;30789;52.030;7.110;2023-07-29T12:44:10;1.90;;;1.00;;
34960;SDS011;30789;52.030;7.110;2023-07-29T12:46:37;1.17;;;0.82;;
34960;SDS011;30789;52.030;7.110;2023-07-29T12:49:03;1.15;;;0.98;;
34960;SDS011;30789;52.030;7.110;2023-07-29T12:51:30;0.85;;;0.85;;
34960;SDS011;30789;52.030;7.110;2023-07-29T12:53:56;6.03;;;1.10;;
34960;SDS011;30789;52.030;7.110;2023-07-29T12:56:23;2.22;;;1.05;;
34960;SDS011;30789;52.030;7.110;2023-07-29T12:58:51;2.47;;;1.30;;
34960;SDS011;30789;52.030;7.110;2023-07-29T13:01:18;5.85;;;1.48;;
34960;SDS011;30789;52.030;7.110;2023-07-29T13:03:44;2.53;;;1.42;;
34960;SDS011;30789;52.030;7.110;2023-07-29T13:06:11;2.78;;;1.27;;
34960;SDS011;30789;52.030;7.110;2023-07-29T13:08:37;1.60;;;1.50;;
34960;SDS011;30789;52.030;7.110;2023-07-29T13:11:04;2.53;;;1.38;;
34960;SDS011;30789;52.030;7.110;2023-07-29T13:13:31;1.90;;;1.60;;
34960;SDS011;30789;52.030;7.110;2023-07-29T13:15:59;1.20;;;1.10;;
34960;SDS011;30789;52.030;7.110;2023-07-29T13:18:26;1.50;;;1.13;;
34960;SDS011;30789;52.030;7.110;2023-07-29T13:20:53;1.27;;;1.17;;
34960;SDS011;30789;52.030;7.110;2023-07-29T13:23:20;1.95;;;1.00;;
34960;SDS011;30789;52.030;7.110;2023-07-29T13:25:47;1.35;;;1.25;;
34960;SDS011;30789;52.030;7.110;2023-07-29T13:28:13;2.22;;;1.13;;
34960;SDS011;30789;52.030;7.110;2023-07-29T13:30:40;1.38;;;1.15;;
34960;SDS011;30789;52.030;7.110;2023-07-29T13:33:08;1.77;;;1.40;;
34960;SDS011;30789;52.030;7.110;2023-07-29T13:35:35;1.40;;;1.23;;
34960;SDS011;30789;52.030;7.110;2023-07-29T13:38:01;2.75;;;1.60;;
34960;SDS011;30789;52.030;7.110;2023-07-29T13:40:29;2.38;;;1.50;;
34960;SDS011;30789;52.030;7.110;2023-07-29T13:42:56;1.85;;;1.33;;
34960;SDS011;30789;52.030;7.110;2023-07-29T13:45:22;2.50;;;1.80;;
34960;SDS011;30789;52.030;7.110;2023-07-29T13:47:49;2.38;;;1.83;;
34960;SDS011;30789;52.030;7.110;2023-07-29T13:50:17;5.75;;;1.70;;
34960;SDS011;30789;52.030;7.110;2023-07-29T13:52:44;1.45;;;1.30;;
34960;SDS011;30789;52.030;7.110;2023-07-29T13:55:11;5.78;;;1.48;;
34960;SDS011;30789;52.030;7.110;2023-07-29T13:57:37;1.98;;;1.48;;
34960;SDS011;30789;52.030;7.110;2023-07-29T14:00:05;2.30;;;1.27;;
34960;SDS011;30789;52.030;7.110;2023-07-29T14:02:33;3.08;;;1.50;;
34960;SDS011;30789;52.030;7.110;2023-07-29T14:05:00;2.15;;;1.20;;
34960;SDS011;30789;52.030;7.110;2023-07-29T14:07:27;2.83;;;1.15;;
34960;SDS011;30789;52.030;7.110;2023-07-29T14:09:54;1.60;;;0.80;;
34960;SDS011;30789;52.030;7.110;2023-07-29T14:12:20;1.55;;;1.00;;
34960;SDS011;30789;52.030;7.110;2023-07-29T14:14:47;1.90;;;0.90;;
34960;SDS011;30789;52.030;7.110;2023-07-29T14:17:13;1.55;;;0.70;;
34960;SDS011;30789;52.030;7.110;2023-07-29T14:19:40;3.40;;;0.73;;
34960;SDS011;30789;52.030;7.110;2023-07-29T14:22:06;2.45;;;1.02;;
34960;SDS011;30789;52.030;7.110;2023-07-29T14:24:34;1.05;;;0.70;;
34960;SDS011;30789;52.030;7.110;2023-07-29T14:27:01;1.02;;;0.50;;
34960;SDS011;30789;52.030;7.110;2023-07-29T14:29:28;1.25;;;0.60;;
34960;SDS011;30789;52.030;7.110;2023-07-29T14:31:54;4.47;;;1.00;;
34960;SDS011;30789;52.030;7.110;2023-07-29T14:34:21;1.85;;;1.00;;
34960;SDS011;30789;52.030;7.110;2023-07-29T14:36:47;1.88;;;0.70;;
34960;SDS011;30789;52.030;7.110;2023-07-29T14:39:14;1.20;;;0.70;;
34960;SDS011;30789;52.030;7.110;2023-07-29T14:41:42;1.65;;;0.90;;
34960;SDS011;30789;52.030;7.110;2023-07-29T14:44:08;4.53;;;0.88;;
34960;SDS011;30789;52.030;7.110;2023-07-29T14:46:34;1.83;;;0.73;;